sensor_id;sensor_type;location;lat;lon;timestamp;temperature;humidity
21189;DHT22;39071;52.420;20.896;2023-02-28T00:00:45;-2.10;99.90
21189;DHT22;39071;52.420;20.896;2023-02-28T00:03:10;-2.10;99.90
21189;DHT22;39071;52.420;20.896;2023-02-28T00:05:36;-2.20;99.90
21189;DHT22;39071;52.420;20.896;2023-02-28T00:08:02;-2.20;1.00
21189;DHT22;39071;52.420;20.896;2023-02-28T00:10:30;-2.30;1.00
21189;DHT22;39071;52.420;20.896;2023-02-28T00:13:00;-2.40;1.00
21189;DHT22;39071;52.420;20.896;2023-02-28T00:15:26;-2.30;1.00
21189;DHT22;39071;52.420;20.896;2023-02-28T00:17:52;-2.40;1.00
21189;DHT22;39071;52.420;20.896;2023-02-28T00:20:19;-2.40;1.00
21189;DHT22;39071;52.420;20.896;2023-02-28T00:22:47;-2.40;1.00
21189;DHT22;39071;52.420;20.896;2023-02-28T00:25:16;-2.50;1.00
21189;DHT22;39071;52.420;20.896;2023-02-28T00:27:43;-2.40;1.00
21189;DHT22;39071;52.420;20.896;2023-02-28T00:30:15;-2.40;1.00
21189;DHT22;39071;52.420;20.896;2023-02-28T00:32:41;-2.50;1.00
21189;DHT22;39071;52.420;20.896;2023-02-28T00:35:08;-2.50;1.00
21189;DHT22;39071;52.420;20.896;2023-02-28T00:37:34;-2.50;1.00
21189;DHT22;39071;52.420;20.896;2023-02-28T00:40:01;-2.60;1.00
21189;DHT22;39071;52.420;20.896;2023-02-28T00:42:27;-2.60;1.00
21189;DHT22;39071;52.420;20.896;2023-02-28T00:44:53;-2.70;1.00
21189;DHT22;39071;52.420;20.896;2023-02-28T00:47:19;-2.60;1.00
21189;DHT22;39071;52.420;20.896;2023-02-28T00:49:45;-2.70;1.00
21189;DHT22;39071;52.420;20.896;2023-02-28T00:52:11;-2.70;1.00
21189;DHT22;39071;52.420;20.896;2023-02-28T00:54:36;-2.70;1.00
21189;DHT22;39071;52.420;20.896;2023-02-28T00:57:02;-2.80;1.00
21189;DHT22;39071;52.420;20.896;2023-02-28T00:59:28;-2.80;1.00
21189;DHT22;39071;52.420;20.896;2023-02-28T01:01:54;-2.90;1.00
21189;DHT22;39071;52.420;20.896;2023-02-28T01:04:19;-3.10;1.00
21189;DHT22;39071;52.420;20.896;2023-02-28T01:06:45;-3.10;1.00
21189;DHT22;39071;52.420;20.896;2023-02-28T01:09:11;-3.20;1.00
21189;DHT22;39071;52.420;20.896;2023-02-28T01:11:37;-3.30;1.00
21189;DHT22;39071;52.420;20.896;2023-02-28T01:14:03;-3.30;1.00
21189;DHT22;39071;52.420;20.896;2023-02-28T01:16:30;-3.30;1.00
21189;DHT22;39071;52.420;20.896;2023-02-28T01:18:55;-3.40;1.00
21189;DHT22;39071;52.420;20.896;2023-02-28T01:21:22;-3.40;1.00
21189;DHT22;39071;52.420;20.896;2023-02-28T01:23:48;-3.40;76.10
21189;DHT22;39071;52.420;20.896;2023-02-28T01:26:19;-3.30;99.90
21189;DHT22;39071;52.420;20.896;2023-02-28T01:28:45;-3.40;99.90
21189;DHT22;39071;52.420;20.896;2023-02-28T01:31:11;-3.30;99.90
21189;DHT22;39071;52.420;20.896;2023-02-28T01:33:38;-3.30;17.70
21189;DHT22;39071;52.420;20.896;2023-02-28T01:36:19;-3.30;1.80
21189;DHT22;39071;52.420;20.896;2023-02-28T01:38:46;-3.30;1.00
21189;DHT22;39071;52.420;20.896;2023-02-28T01:41:21;-3.30;1.00
21189;DHT22;39071;52.420;20.896;2023-02-28T01:46:14;-3.40;1.00
21189;DHT22;39071;52.420;20.896;2023-02-28T01:49:11;-3.50;1.00
21189;DHT22;39071;52.420;20.896;2023-02-28T01:51:42;-3.80;1.00
21189;DHT22;39071;52.420;20.896;2023-02-28T01:54:20;-3.80;9.70
21189;DHT22;39071;52.420;20.896;2023-02-28T01:56:57;-3.90;96.30
21189;DHT22;39071;52.420;20.896;2023-02-28T01:59:42;-3.80;99.90
21189;DHT22;39071;52.420;20.896;2023-02-28T02:02:13;-3.70;99.90
21189;DHT22;39071;52.420;20.896;2023-02-28T02:04:44;-3.70;1.00
21189;DHT22;39071;52.420;20.896;2023-02-28T02:07:13;-3.80;63.60
21189;DHT22;39071;52.420;20.896;2023-02-28T02:09:39;-3.70;99.90
21189;DHT22;39071;52.420;20.896;2023-02-28T02:12:26;-3.70;15.00
21189;DHT22;39071;52.420;20.896;2023-02-28T02:15:16;-3.70;30.50
21189;DHT22;39071;52.420;20.896;2023-02-28T02:17:49;-3.80;51.60
21189;DHT22;39071;52.420;20.896;2023-02-28T02:20:44;-3.90;99.90
21189;DHT22;39071;52.420;20.896;2023-02-28T02:23:29;-4.00;99.90
21189;DHT22;39071;52.420;20.896;2023-02-28T02:29:03;-4.10;99.90
21189;DHT22;39071;52.420;20.896;2023-02-28T02:35:01;-3.70;99.90
21189;DHT22;39071;52.420;20.896;2023-02-28T02:38:06;-4.10;99.90
21189;DHT22;39071;52.420;20.896;2023-02-28T02:40:32;-4.20;1.00
21189;DHT22;39071;52.420;20.896;2023-02-28T02:48:12;-4.10;1.00
21189;DHT22;39071;52.420;20.896;2023-02-28T02:51:00;-4.20;99.90
21189;DHT22;39071;52.420;20.896;2023-02-28T02:53:33;-4.10;1.00
21189;DHT22;39071;52.420;20.896;2023-02-28T02:56:02;-4.10;1.00
21189;DHT22;39071;52.420;20.896;2023-02-28T02:58:32;-4.20;1.00
21189;DHT22;39071;52.420;20.896;2023-02-28T03:01:01;-4.10;1.00
21189;DHT22;39071;52.420;20.896;2023-02-28T03:03:28;-4.10;1.00
21189;DHT22;39071;52.420;20.896;2023-02-28T03:05:59;-4.00;99.90
21189;DHT22;39071;52.420;20.896;2023-02-28T03:08:27;-4.00;99.90
21189;DHT22;39071;52.420;20.896;2023-02-28T03:11:03;-4.00;99.90
21189;DHT22;39071;52.420;20.896;2023-02-28T03:16:49;-4.00;99.90
21189;DHT22;39071;52.420;20.896;2023-02-28T03:19:44;-4.00;99.90
21189;DHT22;39071;52.420;20.896;2023-02-28T03:28:15;-4.20;99.90
21189;DHT22;39071;52.420;20.896;2023-02-28T03:30:49;-4.30;99.90
21189;DHT22;39071;52.420;20.896;2023-02-28T03:33:23;-4.30;99.90
21189;DHT22;39071;52.420;20.896;2023-02-28T03:36:07;-4.30;99.90
21189;DHT22;39071;52.420;20.896;2023-02-28T03:38:48;-4.20;91.70
21189;DHT22;39071;52.420;20.896;2023-02-28T03:41:32;-4.20;73.10
21189;DHT22;39071;52.420;20.896;2023-02-28T03:44:10;-4.30;10.70
21189;DHT22;39071;52.420;20.896;2023-02-28T03:46:44;-4.20;1.00
21189;DHT22;39071;52.420;20.896;2023-02-28T03:49:19;-4.20;1.00
21189;DHT22;39071;52.420;20.896;2023-02-28T03:51:47;-4.20;1.00
21189;DHT22;39071;52.420;20.896;2023-02-28T03:54:26;-4.20;1.00
21189;DHT22;39071;52.420;20.896;2023-02-28T03:57:28;-4.30;1.00
21189;DHT22;39071;52.420;20.896;2023-02-28T03:59:56;-4.30;1.00
21189;DHT22;39071;52.420;20.896;2023-02-28T04:02:23;-4.30;1.00
21189;DHT22;39071;52.420;20.896;2023-02-28T04:04:49;-4.30;1.00
21189;DHT22;39071;52.420;20.896;2023-02-28T04:07:15;-4.30;1.00
21189;DHT22;39071;52.420;20.896;2023-02-28T04:09:41;-4.30;1.00
21189;DHT22;39071;52.420;20.896;2023-02-28T04:12:07;-4.30;1.00
21189;DHT22;39071;52.420;20.896;2023-02-28T04:14:33;-4.40;1.00
21189;DHT22;39071;52.420;20.896;2023-02-28T04:16:58;-4.40;1.00
21189;DHT22;39071;52.420;20.896;2023-02-28T04:19:24;-4.50;1.00
21189;DHT22;39071;52.420;20.896;2023-02-28T04:21:52;-4.50;1.00
21189;DHT22;39071;52.420;20.896;2023-02-28T04:24:20;-4.50;1.00
21189;DHT22;39071;52.420;20.896;2023-02-28T04:26:48;-4.50;1.00
21189;DHT22;39071;52.420;20.896;2023-02-28T04:29:22;-2.90;1.00
21189;DHT22;39071;52.420;20.896;2023-02-28T04:31:48;-4.40;1.00
21189;DHT22;39071;52.420;20.896;2023-02-28T04:34:13;-4.50;1.00
21189;DHT22;39071;52.420;20.896;2023-02-28T04:36:39;-4.50;1.00
21189;DHT22;39071;52.420;20.896;2023-02-28T04:39:05;-4.60;1.00
21189;DHT22;39071;52.420;20.896;2023-02-28T04:41:31;-4.60;1.00
21189;DHT22;39071;52.420;20.896;2023-02-28T04:43:57;-4.70;1.00
21189;DHT22;39071;52.420;20.896;2023-02-28T04:46:23;-4.80;1.00
21189;DHT22;39071;52.420;20.896;2023-02-28T04:48:48;-4.80;18.60
21189;DHT22;39071;52.420;20.896;2023-02-28T04:51:16;-4.80;18.50
21189;DHT22;39071;52.420;20.896;2023-02-28T04:53:43;-4.90;27.00
21189;DHT22;39071;52.420;20.896;2023-02-28T04:56:15;-4.80;9.20
21189;DHT22;39071;52.420;20.896;2023-02-28T04:58:41;-4.80;1.00
21189;DHT22;39071;52.420;20.896;2023-02-28T05:01:23;-4.80;1.00
21189;DHT22;39071;52.420;20.896;2023-02-28T05:03:51;-4.80;1.00
21189;DHT22;39071;52.420;20.896;2023-02-28T05:06:18;-4.70;1.00
21189;DHT22;39071;52.420;20.896;2023-02-28T05:08:44;-4.70;1.00
21189;DHT22;39071;52.420;20.896;2023-02-28T05:11:30;-3.90;1.00
21189;DHT22;39071;52.420;20.896;2023-02-28T05:14:01;-4.70;1.00
21189;DHT22;39071;52.420;20.896;2023-02-28T05:16:27;-4.40;1.00
21189;DHT22;39071;52.420;20.896;2023-02-28T05:18:53;-4.80;1.00
21189;DHT22;39071;52.420;20.896;2023-02-28T05:21:34;-4.80;1.00
21189;DHT22;39071;52.420;20.896;2023-02-28T05:24:03;-4.80;1.00
21189;DHT22;39071;52.420;20.896;2023-02-28T05:26:30;-4.80;1.00
21189;DHT22;39071;52.420;20.896;2023-02-28T05:28:56;-4.80;1.00
21189;DHT22;39071;52.420;20.896;2023-02-28T05:31:22;-4.80;1.00
21189;DHT22;39071;52.420;20.896;2023-02-28T05:33:48;-4.80;1.00
21189;DHT22;39071;52.420;20.896;2023-02-28T05:36:14;-4.90;1.00
21189;DHT22;39071;52.420;20.896;2023-02-28T05:38:40;-4.80;1.00
21189;DHT22;39071;52.420;20.896;2023-02-28T05:41:10;-4.80;1.00
21189;DHT22;39071;52.420;20.896;2023-02-28T05:43:37;-4.80;1.00
21189;DHT22;39071;52.420;20.896;2023-02-28T05:46:07;-4.80;1.00
21189;DHT22;39071;52.420;20.896;2023-02-28T05:48:36;-4.70;1.00
21189;DHT22;39071;52.420;20.896;2023-02-28T05:51:03;-4.70;1.00
21189;DHT22;39071;52.420;20.896;2023-02-28T05:53:29;-4.70;1.00
21189;DHT22;39071;52.420;20.896;2023-02-28T05:55:56;-4.70;1.00
21189;DHT22;39071;52.420;20.896;2023-02-28T05:58:22;-4.60;1.00
21189;DHT22;39071;52.420;20.896;2023-02-28T06:00:48;-4.10;1.00
21189;DHT22;39071;52.420;20.896;2023-02-28T06:03:14;-4.50;1.00
21189;DHT22;39071;52.420;20.896;2023-02-28T06:05:40;-4.40;1.00
21189;DHT22;39071;52.420;20.896;2023-02-28T06:08:05;-4.30;1.00
21189;DHT22;39071;52.420;20.896;2023-02-28T06:10:33;-4.20;1.00
21189;DHT22;39071;52.420;20.896;2023-02-28T06:13:00;-4.00;1.00
21189;DHT22;39071;52.420;20.896;2023-02-28T06:15:28;-3.90;1.00
21189;DHT22;39071;52.420;20.896;2023-02-28T06:17:54;-3.80;1.00
21189;DHT22;39071;52.420;20.896;2023-02-28T06:20:22;-3.70;1.00
21189;DHT22;39071;52.420;20.896;2023-02-28T06:22:49;-2.60;1.00
21189;DHT22;39071;52.420;20.896;2023-02-28T06:25:16;-3.60;1.00
21189;DHT22;39071;52.420;20.896;2023-02-28T06:27:43;-3.50;1.00
21189;DHT22;39071;52.420;20.896;2023-02-28T06:30:10;-3.50;1.00
21189;DHT22;39071;52.420;20.896;2023-02-28T06:32:36;-3.40;1.00
21189;DHT22;39071;52.420;20.896;2023-02-28T06:35:03;-3.30;1.00
21189;DHT22;39071;52.420;20.896;2023-02-28T06:37:30;-3.30;1.00
21189;DHT22;39071;52.420;20.896;2023-02-28T06:39:56;-3.20;1.00
21189;DHT22;39071;52.420;20.896;2023-02-28T06:42:23;-3.10;1.00
21189;DHT22;39071;52.420;20.896;2023-02-28T06:44:55;-3.10;1.00
21189;DHT22;39071;52.420;20.896;2023-02-28T06:47:21;-2.90;1.00
21189;DHT22;39071;52.420;20.896;2023-02-28T06:49:47;-2.70;1.00
21189;DHT22;39071;52.420;20.896;2023-02-28T06:52:14;-2.60;1.00
21189;DHT22;39071;52.420;20.896;2023-02-28T06:54:40;-2.40;1.00
21189;DHT22;39071;52.420;20.896;2023-02-28T06:57:05;-2.20;1.00
21189;DHT22;39071;52.420;20.896;2023-02-28T06:59:31;-2.00;1.00
21189;DHT22;39071;52.420;20.896;2023-02-28T07:01:57;-1.80;1.00
21189;DHT22;39071;52.420;20.896;2023-02-28T07:04:23;-1.70;1.00
21189;DHT22;39071;52.420;20.896;2023-02-28T07:06:48;-1.50;1.00
21189;DHT22;39071;52.420;20.896;2023-02-28T07:09:14;-1.40;1.00
21189;DHT22;39071;52.420;20.896;2023-02-28T07:11:40;-0.30;1.00
21189;DHT22;39071;52.420;20.896;2023-02-28T07:14:06;-0.40;99.90
21189;DHT22;39071;52.420;20.896;2023-02-28T07:16:32;0.30;99.90
21189;DHT22;39071;52.420;20.896;2023-02-28T07:18:58;1.80;99.90
21189;DHT22;39071;52.420;20.896;2023-02-28T07:21:24;3.10;17.60
21189;DHT22;39071;52.420;20.896;2023-02-28T07:23:50;4.10;1.00
21189;DHT22;39071;52.420;20.896;2023-02-28T07:26:19;4.50;1.00
21189;DHT22;39071;52.420;20.896;2023-02-28T07:28:46;5.10;1.00
21189;DHT22;39071;52.420;20.896;2023-02-28T07:31:13;6.00;1.00
21189;DHT22;39071;52.420;20.896;2023-02-28T07:33:39;6.80;1.00
21189;DHT22;39071;52.420;20.896;2023-02-28T07:36:14;7.60;1.00
21189;DHT22;39071;52.420;20.896;2023-02-28T07:38:49;8.10;1.00
21189;DHT22;39071;52.420;20.896;2023-02-28T07:41:17;8.20;1.00
21189;DHT22;39071;52.420;20.896;2023-02-28T07:43:43;8.40;1.00
21189;DHT22;39071;52.420;20.896;2023-02-28T07:46:12;8.90;1.00
21189;DHT22;39071;52.420;20.896;2023-02-28T07:48:40;9.10;1.00
21189;DHT22;39071;52.420;20.896;2023-02-28T07:51:07;9.50;1.00
21189;DHT22;39071;52.420;20.896;2023-02-28T07:53:33;9.70;1.00
21189;DHT22;39071;52.420;20.896;2023-02-28T07:56:00;9.80;1.00
21189;DHT22;39071;52.420;20.896;2023-02-28T07:58:27;10.10;1.00
21189;DHT22;39071;52.420;20.896;2023-02-28T08:00:54;10.40;1.00
21189;DHT22;39071;52.420;20.896;2023-02-28T08:03:21;10.30;1.00
21189;DHT22;39071;52.420;20.896;2023-02-28T08:05:48;9.80;1.00
21189;DHT22;39071;52.420;20.896;2023-02-28T08:08:15;9.50;1.00
21189;DHT22;39071;52.420;20.896;2023-02-28T08:10:41;9.50;1.00
21189;DHT22;39071;52.420;20.896;2023-02-28T08:13:07;9.50;1.00
21189;DHT22;39071;52.420;20.896;2023-02-28T08:15:33;9.50;1.00
21189;DHT22;39071;52.420;20.896;2023-02-28T08:17:59;9.60;1.00
21189;DHT22;39071;52.420;20.896;2023-02-28T08:20:25;9.80;1.00
21189;DHT22;39071;52.420;20.896;2023-02-28T08:22:51;9.70;1.00
21189;DHT22;39071;52.420;20.896;2023-02-28T08:25:18;9.60;1.00
21189;DHT22;39071;52.420;20.896;2023-02-28T08:27:43;9.40;1.00
21189;DHT22;39071;52.420;20.896;2023-02-28T08:30:11;9.60;1.00
21189;DHT22;39071;52.420;20.896;2023-02-28T08:32:37;9.30;1.00
21189;DHT22;39071;52.420;20.896;2023-02-28T08:35:03;9.50;1.00
21189;DHT22;39071;52.420;20.896;2023-02-28T08:37:29;9.30;1.00
21189;DHT22;39071;52.420;20.896;2023-02-28T08:39:55;9.00;1.00
21189;DHT22;39071;52.420;20.896;2023-02-28T08:42:21;8.60;1.00
21189;DHT22;39071;52.420;20.896;2023-02-28T08:44:46;8.10;1.00
21189;DHT22;39071;52.420;20.896;2023-02-28T08:47:12;7.70;1.00
21189;DHT22;39071;52.420;20.896;2023-02-28T08:49:38;7.30;1.00
21189;DHT22;39071;52.420;20.896;2023-02-28T08:52:04;7.40;1.00
21189;DHT22;39071;52.420;20.896;2023-02-28T08:54:29;7.20;1.00
21189;DHT22;39071;52.420;20.896;2023-02-28T08:56:56;6.70;1.00
21189;DHT22;39071;52.420;20.896;2023-02-28T08:59:23;6.80;1.00
21189;DHT22;39071;52.420;20.896;2023-02-28T09:01:48;6.80;1.00
21189;DHT22;39071;52.420;20.896;2023-02-28T09:04:14;6.80;1.00
21189;DHT22;39071;52.420;20.896;2023-02-28T09:06:40;6.90;1.00
21189;DHT22;39071;52.420;20.896;2023-02-28T09:09:06;7.00;1.00
21189;DHT22;39071;52.420;20.896;2023-02-28T09:11:34;7.10;1.00
21189;DHT22;39071;52.420;20.896;2023-02-28T09:14:01;7.00;1.00
21189;DHT22;39071;52.420;20.896;2023-02-28T09:16:29;7.10;1.00
21189;DHT22;39071;52.420;20.896;2023-02-28T09:18:55;7.30;1.00
21189;DHT22;39071;52.420;20.896;2023-02-28T09:21:20;7.50;1.00
21189;DHT22;39071;52.420;20.896;2023-02-28T09:23:48;7.60;1.00
21189;DHT22;39071;52.420;20.896;2023-02-28T09:26:21;7.30;1.00
21189;DHT22;39071;52.420;20.896;2023-02-28T09:28:48;7.00;1.00
21189;DHT22;39071;52.420;20.896;2023-02-28T09:31:16;6.50;1.00
21189;DHT22;39071;52.420;20.896;2023-02-28T09:33:42;6.40;1.00
21189;DHT22;39071;52.420;20.896;2023-02-28T09:36:08;6.60;1.00
21189;DHT22;39071;52.420;20.896;2023-02-28T09:38:34;6.80;1.00
21189;DHT22;39071;52.420;20.896;2023-02-28T09:41:08;7.10;1.00
21189;DHT22;39071;52.420;20.896;2023-02-28T09:43:38;7.30;1.00
21189;DHT22;39071;52.420;20.896;2023-02-28T09:46:33;7.40;1.00
21189;DHT22;39071;52.420;20.896;2023-02-28T09:49:05;7.60;1.00
21189;DHT22;39071;52.420;20.896;2023-02-28T09:51:45;7.60;1.00
21189;DHT22;39071;52.420;20.896;2023-02-28T09:54:20;7.30;1.00
21189;DHT22;39071;52.420;20.896;2023-02-28T09:57:13;7.00;1.00
21189;DHT22;39071;52.420;20.896;2023-02-28T10:00:13;7.10;1.00
21189;DHT22;39071;52.420;20.896;2023-02-28T10:05:14;6.70;1.00
21189;DHT22;39071;52.420;20.896;2023-02-28T10:08:03;6.90;1.00
21189;DHT22;39071;52.420;20.896;2023-02-28T10:10:42;7.20;1.00
21189;DHT22;39071;52.420;20.896;2023-02-28T10:13:46;7.20;1.00
21189;DHT22;39071;52.420;20.896;2023-02-28T10:16:35;7.50;1.00
21189;DHT22;39071;52.420;20.896;2023-02-28T10:20:12;7.50;1.00
21189;DHT22;39071;52.420;20.896;2023-02-28T10:24:42;7.40;1.00
21189;DHT22;39071;52.420;20.896;2023-02-28T10:27:15;7.40;1.00
21189;DHT22;39071;52.420;20.896;2023-02-28T10:29:50;7.40;1.00
21189;DHT22;39071;52.420;20.896;2023-02-28T10:32:22;7.60;1.00
21189;DHT22;39071;52.420;20.896;2023-02-28T10:37:44;7.80;1.00
21189;DHT22;39071;52.420;20.896;2023-02-28T10:45:23;8.60;1.00
21189;DHT22;39071;52.420;20.896;2023-02-28T10:48:04;8.60;1.00
21189;DHT22;39071;52.420;20.896;2023-02-28T11:03:56;8.20;1.00
21189;DHT22;39071;52.420;20.896;2023-02-28T11:06:33;8.20;1.00
21189;DHT22;39071;52.420;20.896;2023-02-28T11:09:18;8.10;1.00
21189;DHT22;39071;52.420;20.896;2023-02-28T11:11:47;8.20;1.00
21189;DHT22;39071;52.420;20.896;2023-02-28T11:14:36;7.60;1.00
21189;DHT22;39071;52.420;20.896;2023-02-28T11:17:15;7.70;1.00
21189;DHT22;39071;52.420;20.896;2023-02-28T11:19:47;7.60;1.00
21189;DHT22;39071;52.420;20.896;2023-02-28T11:22:19;7.30;1.00
21189;DHT22;39071;52.420;20.896;2023-02-28T11:24:50;7.30;1.00
21189;DHT22;39071;52.420;20.896;2023-02-28T11:27:26;7.20;1.00
21189;DHT22;39071;52.420;20.896;2023-02-28T11:32:49;7.30;1.00
21189;DHT22;39071;52.420;20.896;2023-02-28T11:37:52;7.50;1.00
21189;DHT22;39071;52.420;20.896;2023-02-28T11:40:26;7.70;1.00
21189;DHT22;39071;52.420;20.896;2023-02-28T12:01:24;8.00;1.00
21189;DHT22;39071;52.420;20.896;2023-02-28T12:12:02;7.90;1.00
21189;DHT22;39071;52.420;20.896;2023-02-28T12:17:52;8.00;1.00
21189;DHT22;39071;52.420;20.896;2023-02-28T12:23:26;7.80;1.00
21189;DHT22;39071;52.420;20.896;2023-02-28T12:26:16;8.10;1.00
21189;DHT22;39071;52.420;20.896;2023-02-28T12:28:54;8.00;1.00
21189;DHT22;39071;52.420;20.896;2023-02-28T12:31:26;8.20;1.00
21189;DHT22;39071;52.420;20.896;2023-02-28T12:34:18;8.30;1.00
21189;DHT22;39071;52.420;20.896;2023-02-28T12:36:44;8.30;1.00
21189;DHT22;39071;52.420;20.896;2023-02-28T12:39:41;8.30;1.00
21189;DHT22;39071;52.420;20.896;2023-02-28T12:42:16;8.00;1.00
21189;DHT22;39071;52.420;20.896;2023-02-28T12:44:59;7.70;1.00
21189;DHT22;39071;52.420;20.896;2023-02-28T12:47:25;7.50;1.00
21189;DHT22;39071;52.420;20.896;2023-02-28T12:50:05;7.40;1.00
21189;DHT22;39071;52.420;20.896;2023-02-28T12:52:55;7.30;1.00
21189;DHT22;39071;52.420;20.896;2023-02-28T13:09:12;7.10;1.00
21189;DHT22;39071;52.420;20.896;2023-02-28T13:11:53;7.20;1.00
21189;DHT22;39071;52.420;20.896;2023-02-28T13:19:35;6.90;1.00
21189;DHT22;39071;52.420;20.896;2023-02-28T13:22:03;7.00;1.00
21189;DHT22;39071;52.420;20.896;2023-02-28T13:24:39;6.90;1.00
21189;DHT22;39071;52.420;20.896;2023-02-28T13:29:36;6.50;1.00
21189;DHT22;39071;52.420;20.896;2023-02-28T13:56:04;6.70;1.00
21189;DHT22;39071;52.420;20.896;2023-02-28T14:06:55;6.60;1.00
21189;DHT22;39071;52.420;20.896;2023-02-28T14:15:18;6.60;1.00
21189;DHT22;39071;52.420;20.896;2023-02-28T14:17:54;6.60;1.00
21189;DHT22;39071;52.420;20.896;2023-02-28T14:20:22;6.60;1.00
21189;DHT22;39071;52.420;20.896;2023-02-28T14:22:58;6.30;1.00
21189;DHT22;39071;52.420;20.896;2023-02-28T14:36:01;5.40;1.00
21189;DHT22;39071;52.420;20.896;2023-02-28T14:38:52;5.40;1.00
21189;DHT22;39071;52.420;20.896;2023-02-28T14:41:36;5.50;1.00
21189;DHT22;39071;52.420;20.896;2023-02-28T14:46:41;5.50;1.00
21189;DHT22;39071;52.420;20.896;2023-02-28T14:49:17;5.50;1.00
21189;DHT22;39071;52.420;20.896;2023-02-28T14:51:43;5.40;1.00
21189;DHT22;39071;52.420;20.896;2023-02-28T14:54:14;5.30;1.00
21189;DHT22;39071;52.420;20.896;2023-02-28T14:56:41;5.30;1.00
21189;DHT22;39071;52.420;20.896;2023-02-28T14:59:30;5.20;1.00
21189;DHT22;39071;52.420;20.896;2023-02-28T15:02:22;5.10;1.00
21189;DHT22;39071;52.420;20.896;2023-02-28T15:05:00;5.10;1.00
21189;DHT22;39071;52.420;20.896;2023-02-28T15:07:26;5.00;1.00
21189;DHT22;39071;52.420;20.896;2023-02-28T15:10:13;4.90;1.00
21189;DHT22;39071;52.420;20.896;2023-02-28T15:12:40;4.90;1.00
21189;DHT22;39071;52.420;20.896;2023-02-28T15:15:18;4.80;1.00
21189;DHT22;39071;52.420;20.896;2023-02-28T15:17:54;4.80;1.00
21189;DHT22;39071;52.420;20.896;2023-02-28T15:20:20;4.70;1.00
21189;DHT22;39071;52.420;20.896;2023-02-28T15:22:48;4.70;1.00
21189;DHT22;39071;52.420;20.896;2023-02-28T15:25:19;4.70;1.00
21189;DHT22;39071;52.420;20.896;2023-02-28T15:27:52;4.60;1.00
21189;DHT22;39071;52.420;20.896;2023-02-28T15:30:30;4.60;1.00
21189;DHT22;39071;52.420;20.896;2023-02-28T15:35:37;4.50;1.00
21189;DHT22;39071;52.420;20.896;2023-02-28T15:38:24;4.40;1.00
21189;DHT22;39071;52.420;20.896;2023-02-28T15:40:53;4.30;1.00
21189;DHT22;39071;52.420;20.896;2023-02-28T15:43:30;4.20;1.00
21189;DHT22;39071;52.420;20.896;2023-02-28T15:46:05;4.10;1.00
21189;DHT22;39071;52.420;20.896;2023-02-28T15:48:44;4.00;1.00
21189;DHT22;39071;52.420;20.896;2023-02-28T15:51:30;3.90;1.00
21189;DHT22;39071;52.420;20.896;2023-02-28T15:54:01;3.90;1.00
21189;DHT22;39071;52.420;20.896;2023-02-28T15:56:32;3.80;1.00
21189;DHT22;39071;52.420;20.896;2023-02-28T15:59:00;3.60;1.00
21189;DHT22;39071;52.420;20.896;2023-02-28T16:01:36;3.50;1.00
21189;DHT22;39071;52.420;20.896;2023-02-28T16:04:14;3.40;1.00
21189;DHT22;39071;52.420;20.896;2023-02-28T16:07:02;3.40;1.00
21189;DHT22;39071;52.420;20.896;2023-02-28T16:09:28;3.20;1.00
21189;DHT22;39071;52.420;20.896;2023-02-28T16:11:59;3.10;1.00
21189;DHT22;39071;52.420;20.896;2023-02-28T16:14:27;3.00;1.00
21189;DHT22;39071;52.420;20.896;2023-02-28T16:17:02;2.90;1.00
21189;DHT22;39071;52.420;20.896;2023-02-28T16:19:28;2.60;1.00
21189;DHT22;39071;52.420;20.896;2023-02-28T16:21:53;2.40;1.00
21189;DHT22;39071;52.420;20.896;2023-02-28T16:24:19;2.10;1.00
21189;DHT22;39071;52.420;20.896;2023-02-28T16:26:49;1.90;1.00
21189;DHT22;39071;52.420;20.896;2023-02-28T16:31:47;1.70;1.00
21189;DHT22;39071;52.420;20.896;2023-02-28T16:34:13;1.60;1.00
21189;DHT22;39071;52.420;20.896;2023-02-28T16:36:39;1.40;1.00
21189;DHT22;39071;52.420;20.896;2023-02-28T16:39:05;1.20;1.00
21189;DHT22;39071;52.420;20.896;2023-02-28T16:41:31;1.00;1.00
21189;DHT22;39071;52.420;20.896;2023-02-28T16:43:59;0.90;1.00
21189;DHT22;39071;52.420;20.896;2023-02-28T16:46:31;0.90;1.00
21189;DHT22;39071;52.420;20.896;2023-02-28T16:48:58;0.80;1.00
21189;DHT22;39071;52.420;20.896;2023-02-28T16:51:24;0.80;1.00
21189;DHT22;39071;52.420;20.896;2023-02-28T16:53:52;0.80;1.00
21189;DHT22;39071;52.420;20.896;2023-02-28T16:56:21;0.80;1.00
21189;DHT22;39071;52.420;20.896;2023-02-28T16:58:47;0.80;1.00
21189;DHT22;39071;52.420;20.896;2023-02-28T17:01:14;0.80;1.00
21189;DHT22;39071;52.420;20.896;2023-02-28T17:03:40;0.70;1.00
21189;DHT22;39071;52.420;20.896;2023-02-28T17:06:12;0.70;1.00
21189;DHT22;39071;52.420;20.896;2023-02-28T17:08:40;0.60;1.00
21189;DHT22;39071;52.420;20.896;2023-02-28T17:11:07;0.50;1.00
21189;DHT22;39071;52.420;20.896;2023-02-28T17:13:33;0.60;1.00
21189;DHT22;39071;52.420;20.896;2023-02-28T17:16:00;0.50;1.00
21189;DHT22;39071;52.420;20.896;2023-02-28T17:18:26;0.40;1.00
21189;DHT22;39071;52.420;20.896;2023-02-28T17:20:54;0.40;1.00
21189;DHT22;39071;52.420;20.896;2023-02-28T17:23:20;0.40;1.00
21189;DHT22;39071;52.420;20.896;2023-02-28T17:25:45;0.40;1.00
21189;DHT22;39071;52.420;20.896;2023-02-28T17:28:20;0.40;1.00
21189;DHT22;39071;52.420;20.896;2023-02-28T17:30:46;0.40;1.00
21189;DHT22;39071;52.420;20.896;2023-02-28T17:33:14;0.30;1.00
21189;DHT22;39071;52.420;20.896;2023-02-28T17:35:40;0.30;1.00
21189;DHT22;39071;52.420;20.896;2023-02-28T17:38:18;0.40;1.00
21189;DHT22;39071;52.420;20.896;2023-02-28T17:40:44;0.40;1.00
21189;DHT22;39071;52.420;20.896;2023-02-28T17:43:10;0.40;1.00
21189;DHT22;39071;52.420;20.896;2023-02-28T17:45:36;0.30;1.00
21189;DHT22;39071;52.420;20.896;2023-02-28T17:48:02;0.30;1.00
21189;DHT22;39071;52.420;20.896;2023-02-28T17:50:28;0.20;1.00
21189;DHT22;39071;52.420;20.896;2023-02-28T17:52:54;0.20;1.00
21189;DHT22;39071;52.420;20.896;2023-02-28T17:55:19;0.10;1.00
21189;DHT22;39071;52.420;20.896;2023-02-28T17:57:45;0.10;1.00
21189;DHT22;39071;52.420;20.896;2023-02-28T18:00:12;0.00;1.00
21189;DHT22;39071;52.420;20.896;2023-02-28T18:02:39;0.00;7.50
21189;DHT22;39071;52.420;20.896;2023-02-28T18:05:05;-0.10;10.90
21189;DHT22;39071;52.420;20.896;2023-02-28T18:07:31;-0.10;17.10
21189;DHT22;39071;52.420;20.896;2023-02-28T18:09:57;-0.10;33.40
21189;DHT22;39071;52.420;20.896;2023-02-28T18:12:23;-0.20;62.50
21189;DHT22;39071;52.420;20.896;2023-02-28T18:14:48;-0.20;32.80
21189;DHT22;39071;52.420;20.896;2023-02-28T18:17:15;-0.30;38.70
21189;DHT22;39071;52.420;20.896;2023-02-28T18:19:41;-0.40;74.70
21189;DHT22;39071;52.420;20.896;2023-02-28T18:22:07;-0.50;99.90
21189;DHT22;39071;52.420;20.896;2023-02-28T18:24:33;-0.60;99.90
21189;DHT22;39071;52.420;20.896;2023-02-28T18:27:00;-0.60;99.90
21189;DHT22;39071;52.420;20.896;2023-02-28T18:29:27;-0.70;99.90
21189;DHT22;39071;52.420;20.896;2023-02-28T18:31:54;-0.40;99.90
21189;DHT22;39071;52.420;20.896;2023-02-28T18:34:21;-0.70;99.90
21189;DHT22;39071;52.420;20.896;2023-02-28T18:36:48;-0.90;99.90
21189;DHT22;39071;52.420;20.896;2023-02-28T18:39:16;-1.00;99.90
21189;DHT22;39071;52.420;20.896;2023-02-28T18:41:42;-1.00;99.90
21189;DHT22;39071;52.420;20.896;2023-02-28T18:44:08;-1.10;99.90